RYR86DY EBCI-LFMU
Flight info
| Callsign | RYR86DY |
|---|---|
| Flight time | 1h 23m |
| Altitude | 31000 |
| Route | CIV N872 LESDO DCT KOVIN DCT DUCRA UM728 RESMI UN857 DISAK DCT DIRMO DCT ETAMO DCT ADEKA DCT MOKDI DCT MEN J27 AFRIC |
| Aircraft | B738/M-SDE3FGILRWY/SB1 |
Departure
| Time | 2026-04-28 09:29 |
|---|---|
| Airport | Brussels South Charleroi Airport (EBCI) |
Arrival
| Time | 2026-04-28 10:52 |
|---|---|
| Airport | Béziers Vias airport (LFMU) |
| Time | Latitude | Longitude | Altitude | Speed | Heading |
|---|---|---|---|---|---|
| 2026-04-28 09:02 | 50.46853 | 4.47043 | 584 ft | 0 kts | 335° |
| 2026-04-28 09:18 | 50.46832 | 4.47059 | 584 ft | 4 kts | 324° |
| 2026-04-28 09:18 | 50.46815 | 4.47088 | 584 ft | 5 kts | 281° |
| 2026-04-28 09:18 | 50.46817 | 4.47123 | 585 ft | 3 kts | 246° |
| 2026-04-28 09:18 | 50.46819 | 4.47130 | 585 ft | 3 kts | 246° |
| 2026-04-28 09:21 | 50.46806 | 4.47085 | 584 ft | 15 kts | 246° |
| 2026-04-28 09:22 | 50.46780 | 4.46994 | 584 ft | 8 kts | 246° |
| 2026-04-28 09:22 | 50.46753 | 4.46898 | 585 ft | 12 kts | 245° |
| 2026-04-28 09:22 | 50.46724 | 4.46807 | 586 ft | 8 kts | 234° |
| 2026-04-28 09:22 | 50.46677 | 4.46778 | 589 ft | 7 kts | 166° |
| 2026-04-28 09:23 | 50.46631 | 4.46805 | 591 ft | 7 kts | 173° |
| 2026-04-28 09:23 | 50.46595 | 4.46763 | 590 ft | 7 kts | 244° |
| 2026-04-28 09:23 | 50.46575 | 4.46687 | 590 ft | 9 kts | 247° |
| 2026-04-28 09:23 | 50.46540 | 4.46571 | 590 ft | 13 kts | 242° |
| 2026-04-28 09:24 | 50.46493 | 4.46414 | 588 ft | 18 kts | 246° |
| 2026-04-28 09:24 | 50.46439 | 4.46234 | 590 ft | 18 kts | 244° |
| 2026-04-28 09:24 | 50.46388 | 4.46057 | 592 ft | 18 kts | 246° |
| 2026-04-28 09:24 | 50.46341 | 4.45888 | 596 ft | 17 kts | 247° |
| 2026-04-28 09:25 | 50.46294 | 4.45727 | 596 ft | 16 kts | 245° |
| 2026-04-28 09:25 | 50.46248 | 4.45575 | 598 ft | 15 kts | 245° |
| 2026-04-28 09:25 | 50.46204 | 4.45426 | 597 ft | 15 kts | 245° |
| 2026-04-28 09:25 | 50.46162 | 4.45283 | 598 ft | 14 kts | 245° |
| 2026-04-28 09:26 | 50.46121 | 4.45143 | 596 ft | 15 kts | 245° |
| 2026-04-28 09:26 | 50.46078 | 4.44989 | 595 ft | 16 kts | 246° |
| 2026-04-28 09:26 | 50.46030 | 4.44821 | 596 ft | 19 kts | 245° |
| 2026-04-28 09:26 | 50.45971 | 4.44623 | 598 ft | 20 kts | 245° |
| 2026-04-28 09:27 | 50.45837 | 4.44285 | 598 ft | 17 kts | 234° |
| 2026-04-28 09:27 | 50.45763 | 4.44137 | 594 ft | 17 kts | 231° |
| 2026-04-28 09:27 | 50.45689 | 4.43993 | 593 ft | 15 kts | 224° |
| 2026-04-28 09:28 | 50.45629 | 4.44011 | 593 ft | 9 kts | 118° |
| 2026-04-28 09:28 | 50.45651 | 4.44137 | 593 ft | 32 kts | 66° |
| 2026-04-28 09:28 | 50.45878 | 4.44916 | 594 ft | 122 kts | 65° |
| 2026-04-28 09:28 | 50.46318 | 4.46451 | 860 ft | 176 kts | 63° |
| 2026-04-28 09:29 | 50.46897 | 4.48308 | 1672 ft | 200 kts | 63° |
| 2026-04-28 09:29 | 50.47834 | 4.49991 | 2701 ft | 211 kts | 44° |
| 2026-04-28 09:29 | 50.48961 | 4.51545 | 3448 ft | 218 kts | 47° |
| 2026-04-28 09:29 | 50.49965 | 4.53310 | 3731 ft | 220 kts | 51° |
| 2026-04-28 09:30 | 50.50956 | 4.55161 | 3971 ft | 224 kts | 54° |
| 2026-04-28 09:30 | 50.51905 | 4.57116 | 3994 ft | 226 kts | 55° |
| 2026-04-28 09:30 | 50.52867 | 4.59077 | 3972 ft | 227 kts | 50° |
| 2026-04-28 09:30 | 50.54274 | 4.60428 | 4182 ft | 255 kts | 19° |
| 2026-04-28 09:31 | 50.56088 | 4.60588 | 4996 ft | 270 kts | 353° |
| 2026-04-28 09:31 | 50.57838 | 4.59464 | 5988 ft | 278 kts | 325° |
| 2026-04-28 09:31 | 50.59081 | 4.57146 | 6985 ft | 283 kts | 296° |
| 2026-04-28 09:31 | 50.59524 | 4.54157 | 7782 ft | 289 kts | 272° |
| 2026-04-28 09:32 | 50.59497 | 4.50973 | 8652 ft | 293 kts | 267° |
| 2026-04-28 09:32 | 50.59383 | 4.47739 | 9482 ft | 299 kts | 266° |
| 2026-04-28 09:32 | 50.59256 | 4.44457 | 10363 ft | 301 kts | 266° |
| 2026-04-28 09:32 | 50.59131 | 4.41096 | 10885 ft | 318 kts | 265° |
| 2026-04-28 09:33 | 50.59007 | 4.37481 | 11107 ft | 343 kts | 266° |
| 2026-04-28 09:33 | 50.58887 | 4.33646 | 11606 ft | 356 kts | 266° |
| 2026-04-28 09:33 | 50.58772 | 4.29742 | 12479 ft | 357 kts | 265° |
| 2026-04-28 09:33 | 50.58658 | 4.25811 | 13282 ft | 361 kts | 266° |
| 2026-04-28 09:34 | 50.58548 | 4.21922 | 14214 ft | 360 kts | 265° |
| 2026-04-28 09:34 | 50.58437 | 4.17980 | 15008 ft | 362 kts | 265° |
| 2026-04-28 09:34 | 50.58323 | 4.14009 | 15725 ft | 366 kts | 265° |
| 2026-04-28 09:34 | 50.58207 | 4.09993 | 16422 ft | 370 kts | 264° |
| 2026-04-28 09:35 | 50.58088 | 4.05938 | 17138 ft | 373 kts | 264° |
| 2026-04-28 09:35 | 50.57967 | 4.01846 | 17850 ft | 376 kts | 264° |
| 2026-04-28 09:35 | 50.57844 | 3.97722 | 18572 ft | 379 kts | 263° |
| 2026-04-28 09:35 | 50.57718 | 3.93569 | 19213 ft | 381 kts | 264° |
| 2026-04-28 09:36 | 50.57555 | 3.89466 | 19861 ft | 380 kts | 258° |
| 2026-04-28 09:36 | 50.56727 | 3.85578 | 20474 ft | 375 kts | 237° |
| 2026-04-28 09:36 | 50.55101 | 3.82412 | 21126 ft | 372 kts | 220° |
| 2026-04-28 09:36 | 50.52971 | 3.80135 | 21699 ft | 373 kts | 205° |
| 2026-04-28 09:37 | 50.50593 | 3.78469 | 22268 ft | 376 kts | 203° |
| 2026-04-28 09:37 | 50.48163 | 3.76872 | 22798 ft | 381 kts | 202° |
| 2026-04-28 09:37 | 50.45708 | 3.75264 | 23350 ft | 384 kts | 203° |
| 2026-04-28 09:37 | 50.43240 | 3.73627 | 23860 ft | 386 kts | 204° |
| 2026-04-28 09:38 | 50.40760 | 3.71957 | 24316 ft | 389 kts | 204° |
| 2026-04-28 09:38 | 50.38302 | 3.70290 | 24765 ft | 391 kts | 204° |
| 2026-04-28 09:38 | 50.35796 | 3.68587 | 25251 ft | 394 kts | 205° |
| 2026-04-28 09:38 | 50.33286 | 3.66884 | 25805 ft | 393 kts | 205° |
| 2026-04-28 09:39 | 50.30771 | 3.65180 | 26242 ft | 395 kts | 205° |
| 2026-04-28 09:39 | 50.28236 | 3.63466 | 26605 ft | 399 kts | 205° |
| 2026-04-28 09:39 | 50.25677 | 3.61736 | 26993 ft | 402 kts | 205° |
| 2026-04-28 09:39 | 50.23101 | 3.59997 | 27404 ft | 404 kts | 205° |
| 2026-04-28 09:40 | 50.20512 | 3.58252 | 27804 ft | 407 kts | 205° |
| 2026-04-28 09:40 | 50.17905 | 3.56498 | 28177 ft | 409 kts | 205° |
| 2026-04-28 09:40 | 50.15282 | 3.54738 | 28549 ft | 412 kts | 205° |
| 2026-04-28 09:40 | 50.12677 | 3.52994 | 28906 ft | 414 kts | 205° |
| 2026-04-28 09:41 | 50.10024 | 3.51220 | 29291 ft | 416 kts | 205° |
| 2026-04-28 09:41 | 50.07356 | 3.49437 | 29625 ft | 419 kts | 206° |
| 2026-04-28 09:41 | 50.04669 | 3.47644 | 29948 ft | 421 kts | 206° |
| 2026-04-28 09:41 | 50.01971 | 3.45845 | 30264 ft | 424 kts | 206° |
| 2026-04-28 09:42 | 49.99251 | 3.44033 | 30498 ft | 427 kts | 205° |
| 2026-04-28 09:42 | 49.96512 | 3.42211 | 30717 ft | 430 kts | 205° |
| 2026-04-28 09:42 | 49.93758 | 3.40382 | 31000 ft | 431 kts | 205° |
| 2026-04-28 09:42 | 49.91030 | 3.38571 | 31122 ft | 435 kts | 205° |
| 2026-04-28 09:43 | 49.85462 | 3.34883 | 31123 ft | 433 kts | 205° |
| 2026-04-28 09:43 | 49.79974 | 3.31258 | 31130 ft | 428 kts | 205° |
| 2026-04-28 09:44 | 49.74488 | 3.27629 | 31139 ft | 429 kts | 205° |
| 2026-04-28 09:44 | 49.69014 | 3.24013 | 31099 ft | 419 kts | 206° |
| 2026-04-28 09:45 | 49.66387 | 3.22285 | 31113 ft | 403 kts | 206° |
| 2026-04-28 09:45 | 49.63891 | 3.20644 | 31098 ft | 388 kts | 206° |
| 2026-04-28 09:45 | 49.61451 | 3.19040 | 31099 ft | 375 kts | 206° |
| 2026-04-28 09:45 | 49.59078 | 3.17478 | 31111 ft | 369 kts | 206° |
| 2026-04-28 09:46 | 49.54325 | 3.14349 | 31125 ft | 374 kts | 206° |
| 2026-04-28 09:46 | 49.49505 | 3.11187 | 31124 ft | 379 kts | 207° |
| 2026-04-28 09:47 | 49.45029 | 3.07082 | 31107 ft | 377 kts | 216° |
| 2026-04-28 09:47 | 49.40674 | 3.02600 | 31107 ft | 376 kts | 216° |
| 2026-04-28 09:48 | 49.36339 | 2.98171 | 31098 ft | 373 kts | 216° |
| 2026-04-28 09:48 | 49.32030 | 2.93803 | 31099 ft | 370 kts | 216° |
| 2026-04-28 09:49 | 49.27747 | 2.89477 | 31105 ft | 368 kts | 216° |
| 2026-04-28 09:49 | 49.23503 | 2.85202 | 31098 ft | 367 kts | 216° |
| 2026-04-28 09:50 | 49.19245 | 2.80921 | 31099 ft | 366 kts | 216° |
| 2026-04-28 09:50 | 49.14994 | 2.76656 | 31104 ft | 365 kts | 216° |
| 2026-04-28 09:51 | 49.10740 | 2.72397 | 31104 ft | 366 kts | 216° |
| 2026-04-28 09:51 | 49.06507 | 2.68168 | 31101 ft | 367 kts | 216° |
| 2026-04-28 09:52 | 49.02237 | 2.63909 | 31128 ft | 366 kts | 217° |
| 2026-04-28 09:52 | 48.97966 | 2.59660 | 31105 ft | 366 kts | 216° |
| 2026-04-28 09:53 | 48.93699 | 2.55424 | 31101 ft | 366 kts | 216° |
| 2026-04-28 09:53 | 48.89465 | 2.51226 | 31103 ft | 365 kts | 216° |
| 2026-04-28 09:54 | 48.85207 | 2.47012 | 31100 ft | 365 kts | 216° |
| 2026-04-28 09:54 | 48.80954 | 2.42810 | 31106 ft | 365 kts | 216° |
| 2026-04-28 09:55 | 48.76698 | 2.38613 | 31099 ft | 365 kts | 216° |
| 2026-04-28 09:55 | 48.72443 | 2.34427 | 31104 ft | 365 kts | 216° |
| 2026-04-28 09:56 | 48.68216 | 2.30275 | 31104 ft | 365 kts | 216° |
| 2026-04-28 09:56 | 48.63958 | 2.26100 | 31102 ft | 365 kts | 216° |
| 2026-04-28 09:57 | 48.59699 | 2.21936 | 31102 ft | 364 kts | 216° |
| 2026-04-28 09:57 | 48.55109 | 2.18613 | 31103 ft | 371 kts | 201° |
| 2026-04-28 09:58 | 48.50072 | 2.16930 | 31085 ft | 374 kts | 197° |
| 2026-04-28 09:58 | 48.44979 | 2.15341 | 31100 ft | 373 kts | 197° |
| 2026-04-28 09:59 | 48.39900 | 2.13723 | 31063 ft | 373 kts | 198° |
| 2026-04-28 09:59 | 48.34836 | 2.12096 | 31073 ft | 372 kts | 198° |
| 2026-04-28 10:00 | 48.29796 | 2.10542 | 31069 ft | 375 kts | 193° |
| 2026-04-28 10:00 | 48.24516 | 2.10704 | 31085 ft | 386 kts | 178° |
| 2026-04-28 10:01 | 48.19199 | 2.11929 | 31046 ft | 386 kts | 178° |
| 2026-04-28 10:01 | 48.13884 | 2.13079 | 31062 ft | 386 kts | 179° |
| 2026-04-28 10:02 | 48.08608 | 2.13630 | 31066 ft | 382 kts | 185° |
| 2026-04-28 10:02 | 48.03295 | 2.13868 | 31076 ft | 383 kts | 185° |
| 2026-04-28 10:03 | 47.97966 | 2.14121 | 31061 ft | 383 kts | 185° |
| 2026-04-28 10:03 | 47.92637 | 2.14411 | 31068 ft | 383 kts | 185° |
| 2026-04-28 10:04 | 47.87357 | 2.14714 | 31074 ft | 381 kts | 185° |
| 2026-04-28 10:04 | 47.82065 | 2.15021 | 31076 ft | 380 kts | 185° |
| 2026-04-28 10:05 | 47.76787 | 2.15327 | 31032 ft | 378 kts | 186° |
| 2026-04-28 10:05 | 47.71547 | 2.15631 | 31047 ft | 375 kts | 186° |
| 2026-04-28 10:06 | 47.66341 | 2.15932 | 31046 ft | 373 kts | 186° |
| 2026-04-28 10:06 | 47.61196 | 2.16227 | 31047 ft | 372 kts | 186° |
| 2026-04-28 10:07 | 47.56023 | 2.16523 | 31027 ft | 371 kts | 186° |
| 2026-04-28 10:07 | 47.50863 | 2.16818 | 31039 ft | 371 kts | 186° |
| 2026-04-28 10:08 | 47.45697 | 2.17112 | 31040 ft | 372 kts | 186° |
| 2026-04-28 10:08 | 47.40560 | 2.17405 | 31043 ft | 372 kts | 186° |
| 2026-04-28 10:09 | 47.35381 | 2.17700 | 31012 ft | 373 kts | 186° |
| 2026-04-28 10:09 | 47.30200 | 2.17995 | 31033 ft | 373 kts | 186° |
| 2026-04-28 10:10 | 47.25022 | 2.18289 | 31031 ft | 372 kts | 186° |
| 2026-04-28 10:10 | 47.19878 | 2.18580 | 31033 ft | 372 kts | 186° |
| 2026-04-28 10:11 | 47.14699 | 2.18873 | 31002 ft | 372 kts | 186° |
| 2026-04-28 10:11 | 47.09494 | 2.19350 | 31036 ft | 386 kts | 179° |
| 2026-04-28 10:12 | 47.06837 | 2.20318 | 31046 ft | 403 kts | 170° |
| 2026-04-28 10:12 | 47.04183 | 2.21889 | 31050 ft | 417 kts | 166° |
| 2026-04-28 10:12 | 46.98723 | 2.25175 | 31044 ft | 432 kts | 167° |
| 2026-04-28 10:13 | 46.93085 | 2.28480 | 31024 ft | 446 kts | 166° |
| 2026-04-28 10:13 | 46.87243 | 2.31897 | 31043 ft | 458 kts | 166° |
| 2026-04-28 10:14 | 46.81430 | 2.36022 | 31027 ft | 473 kts | 155° |
| 2026-04-28 10:14 | 46.75944 | 2.41334 | 31023 ft | 474 kts | 154° |
| 2026-04-28 10:15 | 46.70504 | 2.46625 | 31014 ft | 473 kts | 154° |
| 2026-04-28 10:15 | 46.65008 | 2.51884 | 31035 ft | 472 kts | 154° |
| 2026-04-28 10:16 | 46.59500 | 2.57103 | 31045 ft | 473 kts | 154° |
| 2026-04-28 10:16 | 46.53983 | 2.62310 | 31031 ft | 473 kts | 154° |
| 2026-04-28 10:17 | 46.48497 | 2.67480 | 31026 ft | 474 kts | 154° |
| 2026-04-28 10:17 | 46.42969 | 2.72677 | 31038 ft | 474 kts | 154° |
| 2026-04-28 10:18 | 46.37429 | 2.77874 | 31035 ft | 475 kts | 154° |
| 2026-04-28 10:18 | 46.31876 | 2.83070 | 31014 ft | 475 kts | 154° |
| 2026-04-28 10:19 | 46.26355 | 2.88224 | 31037 ft | 476 kts | 154° |
| 2026-04-28 10:19 | 46.20783 | 2.93412 | 31036 ft | 477 kts | 154° |
| 2026-04-28 10:20 | 46.15203 | 2.98596 | 31044 ft | 477 kts | 154° |
| 2026-04-28 10:20 | 46.09613 | 3.03777 | 31035 ft | 477 kts | 154° |
| 2026-04-28 10:21 | 46.04063 | 3.08910 | 31044 ft | 477 kts | 154° |
| 2026-04-28 10:21 | 45.98470 | 3.14060 | 31042 ft | 477 kts | 155° |
| 2026-04-28 10:22 | 45.95544 | 3.16179 | 31027 ft | 466 kts | 166° |
| 2026-04-28 10:22 | 45.92466 | 3.17470 | 31039 ft | 457 kts | 175° |
| 2026-04-28 10:22 | 45.86233 | 3.18047 | 31064 ft | 447 kts | 187° |
| 2026-04-28 10:23 | 45.80050 | 3.17868 | 31043 ft | 448 kts | 187° |
| 2026-04-28 10:23 | 45.73816 | 3.17729 | 31052 ft | 448 kts | 187° |
| 2026-04-28 10:24 | 45.67585 | 3.17633 | 31031 ft | 448 kts | 186° |
| 2026-04-28 10:24 | 45.61339 | 3.17551 | 31031 ft | 449 kts | 186° |
| 2026-04-28 10:25 | 45.55125 | 3.17472 | 31048 ft | 450 kts | 186° |
| 2026-04-28 10:25 | 45.48856 | 3.17390 | 31038 ft | 451 kts | 186° |
| 2026-04-28 10:26 | 45.42574 | 3.17308 | 31039 ft | 452 kts | 186° |
| 2026-04-28 10:26 | 45.36281 | 3.17227 | 31040 ft | 452 kts | 186° |
| 2026-04-28 10:27 | 45.29989 | 3.17143 | 31023 ft | 453 kts | 186° |
| 2026-04-28 10:27 | 45.23719 | 3.17061 | 31022 ft | 454 kts | 186° |
| 2026-04-28 10:28 | 45.17398 | 3.16980 | 31029 ft | 454 kts | 186° |
| 2026-04-28 10:29 | 45.07927 | 3.16858 | 31036 ft | 454 kts | 185° |
| 2026-04-28 10:29 | 45.01655 | 3.16777 | 31034 ft | 454 kts | 185° |
| 2026-04-28 10:30 | 44.95329 | 3.16695 | 31044 ft | 455 kts | 185° |
| 2026-04-28 10:30 | 44.89001 | 3.16607 | 31029 ft | 455 kts | 185° |
| 2026-04-28 10:31 | 44.82678 | 3.16514 | 31035 ft | 454 kts | 185° |
| 2026-04-28 10:31 | 44.76402 | 3.16423 | 31045 ft | 454 kts | 185° |
| 2026-04-28 10:32 | 44.70080 | 3.16332 | 31038 ft | 454 kts | 185° |
| 2026-04-28 10:32 | 44.66900 | 3.16285 | 30496 ft | 460 kts | 185° |
| 2026-04-28 10:32 | 44.63734 | 3.16242 | 29992 ft | 452 kts | 185° |
| 2026-04-28 10:32 | 44.60615 | 3.16047 | 29337 ft | 444 kts | 191° |
| 2026-04-28 10:33 | 44.57620 | 3.15226 | 28753 ft | 434 kts | 199° |
| 2026-04-28 10:33 | 44.54726 | 3.14153 | 28166 ft | 428 kts | 199° |
| 2026-04-28 10:33 | 44.51898 | 3.13105 | 27594 ft | 424 kts | 198° |
| 2026-04-28 10:33 | 44.49059 | 3.12065 | 27041 ft | 420 kts | 198° |
| 2026-04-28 10:34 | 44.46239 | 3.11046 | 26466 ft | 417 kts | 198° |
| 2026-04-28 10:34 | 44.43438 | 3.10045 | 25907 ft | 414 kts | 198° |
| 2026-04-28 10:34 | 44.40659 | 3.09059 | 25349 ft | 410 kts | 197° |
| 2026-04-28 10:34 | 44.37902 | 3.08084 | 24798 ft | 407 kts | 197° |
| 2026-04-28 10:35 | 44.35162 | 3.07118 | 24266 ft | 405 kts | 197° |
| 2026-04-28 10:35 | 44.32436 | 3.06157 | 23711 ft | 403 kts | 197° |
| 2026-04-28 10:35 | 44.29726 | 3.05202 | 23089 ft | 401 kts | 197° |
| 2026-04-28 10:35 | 44.27071 | 3.04267 | 22505 ft | 397 kts | 197° |
| 2026-04-28 10:36 | 44.24400 | 3.03328 | 21957 ft | 394 kts | 197° |
| 2026-04-28 10:36 | 44.21752 | 3.02398 | 21423 ft | 391 kts | 197° |
| 2026-04-28 10:36 | 44.19123 | 3.01474 | 20879 ft | 388 kts | 197° |
| 2026-04-28 10:36 | 44.16516 | 3.00559 | 20343 ft | 385 kts | 196° |
| 2026-04-28 10:37 | 44.13928 | 2.99652 | 19828 ft | 382 kts | 196° |
| 2026-04-28 10:37 | 44.11359 | 2.98752 | 19310 ft | 379 kts | 196° |
| 2026-04-28 10:37 | 44.08816 | 2.97862 | 18877 ft | 375 kts | 196° |
| 2026-04-28 10:37 | 44.06330 | 2.96992 | 18388 ft | 372 kts | 196° |
| 2026-04-28 10:38 | 44.03827 | 2.96116 | 17837 ft | 370 kts | 196° |
| 2026-04-28 10:38 | 44.01342 | 2.95246 | 17297 ft | 367 kts | 196° |
| 2026-04-28 10:38 | 43.98880 | 2.94385 | 16785 ft | 363 kts | 195° |
| 2026-04-28 10:38 | 43.96438 | 2.93530 | 16290 ft | 360 kts | 195° |
| 2026-04-28 10:39 | 43.94020 | 2.92686 | 15782 ft | 355 kts | 195° |
| 2026-04-28 10:39 | 43.91663 | 2.91865 | 15277 ft | 344 kts | 195° |
| 2026-04-28 10:39 | 43.89375 | 2.91068 | 14793 ft | 334 kts | 196° |
| 2026-04-28 10:39 | 43.87149 | 2.90302 | 14313 ft | 325 kts | 193° |
| 2026-04-28 10:40 | 43.84968 | 2.89822 | 13840 ft | 319 kts | 189° |
| 2026-04-28 10:40 | 43.82788 | 2.89461 | 13317 ft | 312 kts | 188° |
| 2026-04-28 10:40 | 43.80653 | 2.89126 | 12849 ft | 305 kts | 188° |
| 2026-04-28 10:40 | 43.78542 | 2.88798 | 12372 ft | 306 kts | 188° |
| 2026-04-28 10:41 | 43.76428 | 2.88460 | 11930 ft | 307 kts | 188° |
| 2026-04-28 10:41 | 43.74304 | 2.88112 | 11493 ft | 308 kts | 188° |
| 2026-04-28 10:41 | 43.72175 | 2.87757 | 11049 ft | 309 kts | 188° |
| 2026-04-28 10:41 | 43.70065 | 2.87422 | 10621 ft | 310 kts | 184° |
| 2026-04-28 10:42 | 43.67907 | 2.87584 | 10192 ft | 312 kts | 174° |
| 2026-04-28 10:42 | 43.65794 | 2.88240 | 9730 ft | 314 kts | 160° |
| 2026-04-28 10:42 | 43.63827 | 2.89546 | 9285 ft | 314 kts | 154° |
| 2026-04-28 10:42 | 43.61899 | 2.90910 | 8805 ft | 307 kts | 154° |
| 2026-04-28 10:43 | 43.60023 | 2.92242 | 8366 ft | 299 kts | 154° |
| 2026-04-28 10:43 | 43.58200 | 2.93533 | 8002 ft | 290 kts | 154° |
| 2026-04-28 10:43 | 43.56429 | 2.94779 | 7651 ft | 282 kts | 154° |
| 2026-04-28 10:43 | 43.54728 | 2.95971 | 7292 ft | 274 kts | 154° |
| 2026-04-28 10:44 | 43.53045 | 2.97143 | 6965 ft | 270 kts | 154° |
| 2026-04-28 10:44 | 43.51383 | 2.98291 | 6684 ft | 264 kts | 154° |
| 2026-04-28 10:44 | 43.49767 | 2.99400 | 6350 ft | 256 kts | 154° |
| 2026-04-28 10:44 | 43.48204 | 3.00466 | 6008 ft | 246 kts | 154° |
| 2026-04-28 10:45 | 43.46693 | 3.01493 | 5632 ft | 238 kts | 154° |
| 2026-04-28 10:45 | 43.45229 | 3.02487 | 5286 ft | 231 kts | 154° |
| 2026-04-28 10:45 | 43.43817 | 3.03441 | 4929 ft | 222 kts | 154° |
| 2026-04-28 10:45 | 43.42465 | 3.04344 | 4645 ft | 210 kts | 154° |
| 2026-04-28 10:46 | 43.41197 | 3.05188 | 4382 ft | 201 kts | 154° |
| 2026-04-28 10:46 | 43.39968 | 3.06014 | 4130 ft | 193 kts | 154° |
| 2026-04-28 10:46 | 43.38783 | 3.06818 | 3852 ft | 185 kts | 154° |
| 2026-04-28 10:46 | 43.37663 | 3.07583 | 3595 ft | 175 kts | 154° |
| 2026-04-28 10:47 | 43.36604 | 3.08310 | 3438 ft | 167 kts | 154° |
| 2026-04-28 10:47 | 43.35573 | 3.09020 | 3292 ft | 167 kts | 154° |
| 2026-04-28 10:47 | 43.34555 | 3.09799 | 3148 ft | 168 kts | 146° |
| 2026-04-28 10:47 | 43.33874 | 3.11071 | 2959 ft | 171 kts | 103° |
| 2026-04-28 10:48 | 43.33723 | 3.12664 | 2869 ft | 171 kts | 100° |
| 2026-04-28 10:48 | 43.33577 | 3.14281 | 2751 ft | 168 kts | 98° |
| 2026-04-28 10:48 | 43.33460 | 3.15891 | 2598 ft | 170 kts | 97° |
| 2026-04-28 10:48 | 43.33359 | 3.17474 | 2474 ft | 162 kts | 97° |
| 2026-04-28 10:49 | 43.33270 | 3.18984 | 2251 ft | 153 kts | 97° |
| 2026-04-28 10:49 | 43.33190 | 3.20371 | 2104 ft | 136 kts | 96° |
| 2026-04-28 10:49 | 43.33115 | 3.21656 | 1897 ft | 133 kts | 95° |
| 2026-04-28 10:49 | 43.33043 | 3.22915 | 1723 ft | 132 kts | 95° |
| 2026-04-28 10:50 | 43.32972 | 3.24156 | 1557 ft | 133 kts | 95° |
| 2026-04-28 10:50 | 43.32919 | 3.25023 | 1421 ft | 137 kts | 95° |
| 2026-04-28 10:50 | 43.32826 | 3.26787 | 1164 ft | 137 kts | 94° |
| 2026-04-28 10:50 | 43.32767 | 3.28060 | 978 ft | 131 kts | 96° |
| 2026-04-28 10:51 | 43.32697 | 3.29297 | 800 ft | 130 kts | 97° |
| 2026-04-28 10:51 | 43.32614 | 3.30547 | 631 ft | 132 kts | 98° |
| 2026-04-28 10:51 | 43.32550 | 3.31818 | 493 ft | 134 kts | 97° |
| 2026-04-28 10:51 | 43.32477 | 3.33089 | 288 ft | 133 kts | 97° |
| 2026-04-28 10:52 | 43.32405 | 3.34326 | 86 ft | 131 kts | 96° |
| 2026-04-28 10:52 | 43.32339 | 3.35440 | 52 ft | 92 kts | 95° |
| 2026-04-28 10:52 | 43.32305 | 3.36028 | 49 ft | 31 kts | 94° |
| 2026-04-28 10:52 | 43.32292 | 3.36272 | 50 ft | 25 kts | 94° |
| 2026-04-28 10:53 | 43.32280 | 3.36502 | 50 ft | 24 kts | 94° |
| 2026-04-28 10:53 | 43.32279 | 3.36677 | 50 ft | 13 kts | 78° |
| 2026-04-28 10:53 | 43.32266 | 3.36730 | 51 ft | 4 kts | 193° |
| 2026-04-28 10:53 | 43.32267 | 3.36645 | 49 ft | 15 kts | 280° |
| 2026-04-28 10:54 | 43.32285 | 3.36473 | 50 ft | 20 kts | 277° |
| 2026-04-28 10:54 | 43.32292 | 3.36286 | 51 ft | 19 kts | 274° |
| 2026-04-28 10:54 | 43.32302 | 3.36103 | 48 ft | 19 kts | 274° |
| 2026-04-28 10:54 | 43.32311 | 3.35927 | 52 ft | 18 kts | 274° |
| 2026-04-28 10:55 | 43.32320 | 3.35755 | 53 ft | 18 kts | 274° |
| 2026-04-28 10:55 | 43.32329 | 3.35590 | 52 ft | 17 kts | 274° |
| 2026-04-28 10:55 | 43.32338 | 3.35431 | 56 ft | 16 kts | 274° |
| 2026-04-28 10:55 | 43.32315 | 3.35341 | 58 ft | 10 kts | 205° |
| 2026-04-28 10:56 | 43.32251 | 3.35327 | 58 ft | 9 kts | 188° |
| 2026-04-28 10:56 | 43.32198 | 3.35328 | 57 ft | 3 kts | 159° |
| 2026-04-28 10:56 | 43.32165 | 3.35347 | 54 ft | 9 kts | 170° |
| 2026-04-28 10:56 | 43.32125 | 3.35342 | 58 ft | 0 kts | 187° |